sensor_id;sensor_type;location;lat;lon;timestamp;pressure;altitude;pressure_sealevel;temperature;humidity
35551;BME280;21655;46.056;13.616;2023-04-26T00:01:13;100068.47;;;7.76;100.00
35551;BME280;21655;46.056;13.616;2023-04-26T00:03:39;100070.69;;;7.72;100.00
35551;BME280;21655;46.056;13.616;2023-04-26T00:06:05;100065.66;;;7.68;100.00
35551;BME280;21655;46.056;13.616;2023-04-26T00:08:33;100072.91;;;7.61;100.00
35551;BME280;21655;46.056;13.616;2023-04-26T00:10:59;100056.00;;;7.64;100.00
35551;BME280;21655;46.056;13.616;2023-04-26T00:13:24;100071.69;;;7.55;100.00
35551;BME280;21655;46.056;13.616;2023-04-26T00:15:50;100067.88;;;7.56;100.00
35551;BME280;21655;46.056;13.616;2023-04-26T00:18:15;100073.56;;;7.55;100.00
35551;BME280;21655;46.056;13.616;2023-04-26T00:20:42;100070.59;;;7.40;100.00
35551;BME280;21655;46.056;13.616;2023-04-26T00:23:07;100064.41;;;7.46;100.00
35551;BME280;21655;46.056;13.616;2023-04-26T00:25:36;100073.72;;;7.45;100.00
35551;BME280;21655;46.056;13.616;2023-04-26T00:28:03;100065.63;;;7.44;100.00
35551;BME280;21655;46.056;13.616;2023-04-26T00:30:28;100072.47;;;7.32;100.00
35551;BME280;21655;46.056;13.616;2023-04-26T00:32:54;100074.88;;;7.27;100.00
35551;BME280;21655;46.056;13.616;2023-04-26T00:35:20;100072.41;;;7.24;100.00
35551;BME280;21655;46.056;13.616;2023-04-26T00:37:45;100075.56;;;7.29;100.00
35551;BME280;21655;46.056;13.616;2023-04-26T00:40:12;100086.19;;;7.24;100.00
35551;BME280;21655;46.056;13.616;2023-04-26T00:42:38;100090.00;;;7.23;100.00
35551;BME280;21655;46.056;13.616;2023-04-26T00:45:05;100087.06;;;7.17;100.00
35551;BME280;21655;46.056;13.616;2023-04-26T00:47:31;100098.59;;;7.20;100.00
35551;BME280;21655;46.056;13.616;2023-04-26T00:49:58;100094.81;;;7.21;100.00
35551;BME280;21655;46.056;13.616;2023-04-26T00:52:25;100097.41;;;7.23;100.00
35551;BME280;21655;46.056;13.616;2023-04-26T00:54:50;100092.84;;;7.06;100.00
35551;BME280;21655;46.056;13.616;2023-04-26T00:57:17;100100.47;;;7.12;100.00
35551;BME280;21655;46.056;13.616;2023-04-26T00:59:43;100100.78;;;7.01;100.00
35551;BME280;21655;46.056;13.616;2023-04-26T01:02:08;100101.34;;;7.12;100.00
35551;BME280;21655;46.056;13.616;2023-04-26T01:04:34;100094.78;;;7.13;100.00
35551;BME280;21655;46.056;13.616;2023-04-26T01:07:01;100102.16;;;7.05;100.00
35551;BME280;21655;46.056;13.616;2023-04-26T01:09:28;100097.69;;;7.12;100.00
35551;BME280;21655;46.056;13.616;2023-04-26T01:11:55;100112.38;;;7.12;100.00
35551;BME280;21655;46.056;13.616;2023-04-26T01:14:23;100114.03;;;7.05;100.00
35551;BME280;21655;46.056;13.616;2023-04-26T01:16:49;100114.72;;;7.07;100.00
35551;BME280;21655;46.056;13.616;2023-04-26T01:19:15;100117.31;;;7.01;100.00
35551;BME280;21655;46.056;13.616;2023-04-26T01:21:41;100110.81;;;6.84;100.00
35551;BME280;21655;46.056;13.616;2023-04-26T01:24:11;100117.22;;;6.85;100.00
35551;BME280;21655;46.056;13.616;2023-04-26T01:26:37;100116.91;;;6.96;100.00
35551;BME280;21655;46.056;13.616;2023-04-26T01:29:18;100118.28;;;6.92;100.00
35551;BME280;21655;46.056;13.616;2023-04-26T01:31:44;100114.97;;;6.88;100.00
35551;BME280;21655;46.056;13.616;2023-04-26T01:34:10;100114.28;;;6.86;100.00
35551;BME280;21655;46.056;13.616;2023-04-26T01:36:36;100126.81;;;6.81;100.00
35551;BME280;21655;46.056;13.616;2023-04-26T01:39:02;100115.38;;;6.68;100.00
35551;BME280;21655;46.056;13.616;2023-04-26T01:41:28;100114.28;;;6.61;100.00
35551;BME280;21655;46.056;13.616;2023-04-26T01:43:54;100115.53;;;6.66;100.00
35551;BME280;21655;46.056;13.616;2023-04-26T01:46:20;100118.59;;;6.63;100.00
35551;BME280;21655;46.056;13.616;2023-04-26T01:48:46;100120.66;;;6.61;100.00
35551;BME280;21655;46.056;13.616;2023-04-26T01:51:12;100117.72;;;6.63;100.00
35551;BME280;21655;46.056;13.616;2023-04-26T01:53:37;100119.78;;;6.61;100.00
35551;BME280;21655;46.056;13.616;2023-04-26T01:56:03;100121.03;;;6.66;100.00
35551;BME280;21655;46.056;13.616;2023-04-26T01:58:30;100120.66;;;6.61;100.00
35551;BME280;21655;46.056;13.616;2023-04-26T02:00:56;100130.31;;;6.65;100.00
35551;BME280;21655;46.056;13.616;2023-04-26T02:03:22;100123.41;;;6.61;100.00
35551;BME280;21655;46.056;13.616;2023-04-26T02:05:47;100129.06;;;6.60;100.00
35551;BME280;21655;46.056;13.616;2023-04-26T02:08:13;100130.91;;;6.51;100.00
35551;BME280;21655;46.056;13.616;2023-04-26T02:10:38;100128.69;;;6.55;100.00
35551;BME280;21655;46.056;13.616;2023-04-26T02:13:06;100130.75;;;6.53;100.00
35551;BME280;21655;46.056;13.616;2023-04-26T02:15:32;100133.19;;;6.56;100.00
35551;BME280;21655;46.056;13.616;2023-04-26T02:17:57;100137.66;;;6.57;100.00
35551;BME280;21655;46.056;13.616;2023-04-26T02:20:23;100137.44;;;6.50;100.00
35551;BME280;21655;46.056;13.616;2023-04-26T02:22:48;100146.16;;;6.46;100.00
35551;BME280;21655;46.056;13.616;2023-04-26T02:25:14;100139.13;;;6.43;100.00
35551;BME280;21655;46.056;13.616;2023-04-26T02:27:39;100148.78;;;6.47;100.00
35551;BME280;21655;46.056;13.616;2023-04-26T02:30:06;100151.06;;;6.52;100.00
35551;BME280;21655;46.056;13.616;2023-04-26T02:32:32;100153.41;;;6.47;100.00
35551;BME280;21655;46.056;13.616;2023-04-26T02:34:57;100145.69;;;6.50;100.00
35551;BME280;21655;46.056;13.616;2023-04-26T02:37:23;100147.06;;;6.46;100.00
35551;BME280;21655;46.056;13.616;2023-04-26T02:39:50;100155.38;;;6.54;100.00
35551;BME280;21655;46.056;13.616;2023-04-26T02:42:15;100147.97;;;6.55;100.00
35551;BME280;21655;46.056;13.616;2023-04-26T02:44:41;100152.88;;;6.43;100.00
35551;BME280;21655;46.056;13.616;2023-04-26T02:47:07;100150.38;;;6.32;100.00
35551;BME280;21655;46.056;13.616;2023-04-26T02:49:33;100156.56;;;6.34;100.00
35551;BME280;21655;46.056;13.616;2023-04-26T02:51:59;100159.78;;;6.30;100.00
35551;BME280;21655;46.056;13.616;2023-04-26T02:54:24;100162.22;;;6.33;100.00
35551;BME280;21655;46.056;13.616;2023-04-26T02:56:50;100156.53;;;6.26;100.00
35551;BME280;21655;46.056;13.616;2023-04-26T02:59:15;100153.44;;;6.29;100.00
35551;BME280;21655;46.056;13.616;2023-04-26T03:01:41;100155.72;;;6.16;100.00
35551;BME280;21655;46.056;13.616;2023-04-26T03:04:07;100157.00;;;6.22;100.00
35551;BME280;21655;46.056;13.616;2023-04-26T03:06:32;100164.81;;;6.17;100.00
35551;BME280;21655;46.056;13.616;2023-04-26T03:08:58;100165.38;;;6.20;100.00
35551;BME280;21655;46.056;13.616;2023-04-26T03:11:23;100169.47;;;5.99;100.00
35551;BME280;21655;46.056;13.616;2023-04-26T03:13:48;100177.66;;;5.91;100.00
35551;BME280;21655;46.056;13.616;2023-04-26T03:16:14;100179.22;;;5.93;100.00
35551;BME280;21655;46.056;13.616;2023-04-26T03:18:40;100177.25;;;6.03;100.00
35551;BME280;21655;46.056;13.616;2023-04-26T03:21:06;100177.97;;;6.05;100.00
35551;BME280;21655;46.056;13.616;2023-04-26T03:23:31;100178.91;;;6.14;100.00
35551;BME280;21655;46.056;13.616;2023-04-26T03:25:56;100179.22;;;6.11;100.00
35551;BME280;21655;46.056;13.616;2023-04-26T03:28:22;100180.56;;;6.07;100.00
35551;BME280;21655;46.056;13.616;2023-04-26T03:30:48;100182.06;;;6.01;100.00
35551;BME280;21655;46.056;13.616;2023-04-26T03:33:16;100188.91;;;5.97;100.00
35551;BME280;21655;46.056;13.616;2023-04-26T03:35:42;100191.78;;;5.96;100.00
35551;BME280;21655;46.056;13.616;2023-04-26T03:38:08;100192.19;;;6.01;100.00
35551;BME280;21655;46.056;13.616;2023-04-26T03:40:33;100197.69;;;6.01;100.00
35551;BME280;21655;46.056;13.616;2023-04-26T03:42:59;100200.63;;;5.99;100.00
35551;BME280;21655;46.056;13.616;2023-04-26T03:45:24;100195.13;;;5.99;100.00
35551;BME280;21655;46.056;13.616;2023-04-26T03:47:51;100197.75;;;5.91;100.00
35551;BME280;21655;46.056;13.616;2023-04-26T03:50:16;100205.38;;;5.80;100.00
35551;BME280;21655;46.056;13.616;2023-04-26T03:52:42;100200.50;;;5.91;100.00
35551;BME280;21655;46.056;13.616;2023-04-26T03:55:07;100196.91;;;5.91;100.00
35551;BME280;21655;46.056;13.616;2023-04-26T03:57:34;100208.75;;;5.91;100.00
35551;BME280;21655;46.056;13.616;2023-04-26T04:00:00;100215.53;;;5.79;100.00
35551;BME280;21655;46.056;13.616;2023-04-26T04:02:25;100208.53;;;5.85;100.00
35551;BME280;21655;46.056;13.616;2023-04-26T04:04:51;100205.63;;;5.86;100.00
35551;BME280;21655;46.056;13.616;2023-04-26T04:07:16;100210.81;;;5.89;100.00
35551;BME280;21655;46.056;13.616;2023-04-26T04:09:43;100214.56;;;5.88;100.00
35551;BME280;21655;46.056;13.616;2023-04-26T04:12:08;100213.16;;;5.84;100.00
35551;BME280;21655;46.056;13.616;2023-04-26T04:14:34;100217.91;;;5.92;100.00
35551;BME280;21655;46.056;13.616;2023-04-26T04:16:59;100215.78;;;5.86;100.00
35551;BME280;21655;46.056;13.616;2023-04-26T04:19:26;100206.31;;;5.88;100.00
35551;BME280;21655;46.056;13.616;2023-04-26T04:21:51;100212.53;;;5.90;100.00
35551;BME280;21655;46.056;13.616;2023-04-26T04:24:17;100216.16;;;5.91;100.00
35551;BME280;21655;46.056;13.616;2023-04-26T04:26:44;100212.53;;;5.90;100.00
35551;BME280;21655;46.056;13.616;2023-04-26T04:29:09;100207.47;;;5.95;100.00
35551;BME280;21655;46.056;13.616;2023-04-26T04:31:35;100202.19;;;6.02;100.00
35551;BME280;21655;46.056;13.616;2023-04-26T04:34:01;100210.28;;;6.03;100.00
35551;BME280;21655;46.056;13.616;2023-04-26T04:36:26;100209.38;;;6.12;100.00
35551;BME280;21655;46.056;13.616;2023-04-26T04:38:52;100213.53;;;6.16;100.00
35551;BME280;21655;46.056;13.616;2023-04-26T04:41:18;100204.94;;;6.19;100.00
35551;BME280;21655;46.056;13.616;2023-04-26T04:43:44;100215.25;;;6.17;100.00
35551;BME280;21655;46.056;13.616;2023-04-26T04:46:10;100212.97;;;6.13;100.00
35551;BME280;21655;46.056;13.616;2023-04-26T04:48:36;100221.78;;;6.16;100.00
35551;BME280;21655;46.056;13.616;2023-04-26T04:51:03;100215.88;;;6.11;100.00
35551;BME280;21655;46.056;13.616;2023-04-26T04:53:28;100226.34;;;6.08;100.00
35551;BME280;21655;46.056;13.616;2023-04-26T04:55:54;100227.44;;;6.15;100.00
35551;BME280;21655;46.056;13.616;2023-04-26T04:58:21;100225.38;;;6.17;100.00
35551;BME280;21655;46.056;13.616;2023-04-26T05:00:47;100234.19;;;6.20;100.00
35551;BME280;21655;46.056;13.616;2023-04-26T05:03:13;100238.69;;;6.21;100.00
35551;BME280;21655;46.056;13.616;2023-04-26T05:05:39;100239.09;;;6.26;100.00
35551;BME280;21655;46.056;13.616;2023-04-26T05:08:05;100245.84;;;6.32;100.00
35551;BME280;21655;46.056;13.616;2023-04-26T05:10:34;100243.97;;;6.32;100.00
35551;BME280;21655;46.056;13.616;2023-04-26T05:13:00;100247.13;;;6.20;100.00
35551;BME280;21655;46.056;13.616;2023-04-26T05:15:25;100251.50;;;6.13;100.00
35551;BME280;21655;46.056;13.616;2023-04-26T05:17:51;100258.66;;;6.23;100.00
35551;BME280;21655;46.056;13.616;2023-04-26T05:20:16;100258.16;;;6.55;100.00
35551;BME280;21655;46.056;13.616;2023-04-26T05:22:42;100253.31;;;6.92;100.00
35551;BME280;21655;46.056;13.616;2023-04-26T05:25:08;100259.63;;;7.27;100.00
35551;BME280;21655;46.056;13.616;2023-04-26T05:27:35;100268.81;;;7.69;100.00
35551;BME280;21655;46.056;13.616;2023-04-26T05:30:02;100264.84;;;8.05;100.00
35551;BME280;21655;46.056;13.616;2023-04-26T05:32:28;100271.03;;;8.40;100.00
35551;BME280;21655;46.056;13.616;2023-04-26T05:34:54;100274.72;;;8.89;100.00
35551;BME280;21655;46.056;13.616;2023-04-26T05:37:19;100275.53;;;9.69;100.00
35551;BME280;21655;46.056;13.616;2023-04-26T05:39:45;100267.84;;;10.41;100.00
35551;BME280;21655;46.056;13.616;2023-04-26T05:42:10;100272.38;;;10.87;100.00
35551;BME280;21655;46.056;13.616;2023-04-26T05:44:36;100267.28;;;11.35;100.00
35551;BME280;21655;46.056;13.616;2023-04-26T05:47:01;100259.53;;;11.68;100.00
35551;BME280;21655;46.056;13.616;2023-04-26T05:49:27;100264.34;;;12.17;100.00
35551;BME280;21655;46.056;13.616;2023-04-26T05:51:52;100256.94;;;12.39;100.00
35551;BME280;21655;46.056;13.616;2023-04-26T05:54:18;100251.81;;;13.13;100.00
35551;BME280;21655;46.056;13.616;2023-04-26T05:56:43;100255.72;;;13.39;100.00
35551;BME280;21655;46.056;13.616;2023-04-26T05:59:08;100262.06;;;13.33;100.00
35551;BME280;21655;46.056;13.616;2023-04-26T06:01:34;100258.97;;;13.70;100.00
35551;BME280;21655;46.056;13.616;2023-04-26T06:03:59;100261.81;;;13.83;100.00
35551;BME280;21655;46.056;13.616;2023-04-26T06:06:25;100256.50;;;14.56;100.00
35551;BME280;21655;46.056;13.616;2023-04-26T06:08:52;100261.56;;;14.33;100.00
35551;BME280;21655;46.056;13.616;2023-04-26T06:11:18;100264.19;;;14.48;100.00
35551;BME280;21655;46.056;13.616;2023-04-26T06:13:43;100270.84;;;15.00;100.00
35551;BME280;21655;46.056;13.616;2023-04-26T06:16:09;100260.16;;;15.29;100.00
35551;BME280;21655;46.056;13.616;2023-04-26T06:18:35;100262.66;;;14.99;100.00
35551;BME280;21655;46.056;13.616;2023-04-26T06:21:01;100266.00;;;15.54;100.00
35551;BME280;21655;46.056;13.616;2023-04-26T06:23:26;100271.16;;;15.70;100.00
35551;BME280;21655;46.056;13.616;2023-04-26T06:25:51;100283.63;;;16.06;100.00
35551;BME280;21655;46.056;13.616;2023-04-26T06:28:17;100279.97;;;15.54;100.00
35551;BME280;21655;46.056;13.616;2023-04-26T06:30:42;100273.91;;;15.31;100.00
35551;BME280;21655;46.056;13.616;2023-04-26T06:33:08;100276.16;;;14.89;100.00
35551;BME280;21655;46.056;13.616;2023-04-26T06:35:41;100274.28;;;15.15;100.00
35551;BME280;21655;46.056;13.616;2023-04-26T06:38:06;100282.84;;;15.01;100.00
35551;BME280;21655;46.056;13.616;2023-04-26T06:40:32;100266.19;;;15.46;100.00
35551;BME280;21655;46.056;13.616;2023-04-26T06:42:58;100273.28;;;16.07;100.00
35551;BME280;21655;46.056;13.616;2023-04-26T06:45:24;100277.78;;;16.14;100.00
35551;BME280;21655;46.056;13.616;2023-04-26T06:47:50;100278.41;;;16.10;100.00
35551;BME280;21655;46.056;13.616;2023-04-26T06:50:17;100272.38;;;17.26;100.00
35551;BME280;21655;46.056;13.616;2023-04-26T06:52:42;100272.22;;;16.71;100.00
35551;BME280;21655;46.056;13.616;2023-04-26T06:55:08;100268.25;;;17.35;97.36
35551;BME280;21655;46.056;13.616;2023-04-26T06:57:34;100269.59;;;18.06;90.75
35551;BME280;21655;46.056;13.616;2023-04-26T06:59:59;100263.81;;;18.62;80.96
35551;BME280;21655;46.056;13.616;2023-04-26T07:02:25;100269.19;;;18.27;77.58
35551;BME280;21655;46.056;13.616;2023-04-26T07:04:50;100272.19;;;18.50;81.20
35551;BME280;21655;46.056;13.616;2023-04-26T07:07:16;100264.88;;;20.08;69.37
35551;BME280;21655;46.056;13.616;2023-04-26T07:09:42;100259.81;;;18.87;70.37
35551;BME280;21655;46.056;13.616;2023-04-26T07:12:10;100258.69;;;19.06;71.52
35551;BME280;21655;46.056;13.616;2023-04-26T07:14:36;100256.56;;;19.49;77.25
35551;BME280;21655;46.056;13.616;2023-04-26T07:17:08;100262.41;;;20.69;58.02
35551;BME280;21655;46.056;13.616;2023-04-26T07:19:33;100254.38;;;20.15;60.21
35551;BME280;21655;46.056;13.616;2023-04-26T07:21:59;100249.16;;;19.25;64.23
35551;BME280;21655;46.056;13.616;2023-04-26T07:24:25;100254.53;;;19.67;62.53
35551;BME280;21655;46.056;13.616;2023-04-26T07:26:51;100248.63;;;20.21;58.31
35551;BME280;21655;46.056;13.616;2023-04-26T07:29:16;100248.09;;;19.90;62.74
35551;BME280;21655;46.056;13.616;2023-04-26T07:31:43;100243.75;;;20.91;60.55
35551;BME280;21655;46.056;13.616;2023-04-26T07:34:09;100241.97;;;21.12;53.21
35551;BME280;21655;46.056;13.616;2023-04-26T07:36:34;100241.81;;;19.53;60.13
35551;BME280;21655;46.056;13.616;2023-04-26T07:39:00;100248.97;;;20.59;56.48
35551;BME280;21655;46.056;13.616;2023-04-26T07:41:25;100247.31;;;20.75;52.29
35551;BME280;21655;46.056;13.616;2023-04-26T07:43:51;100246.53;;;20.51;54.04
35551;BME280;21655;46.056;13.616;2023-04-26T07:46:17;100244.84;;;19.52;55.00
35551;BME280;21655;46.056;13.616;2023-04-26T07:48:42;100245.63;;;19.29;57.97
35551;BME280;21655;46.056;13.616;2023-04-26T07:51:11;100252.28;;;20.22;62.75
35551;BME280;21655;46.056;13.616;2023-04-26T07:53:38;100250.00;;;20.81;57.06
35551;BME280;21655;46.056;13.616;2023-04-26T07:56:04;100257.97;;;20.96;57.57
35551;BME280;21655;46.056;13.616;2023-04-26T07:58:32;100249.91;;;20.76;54.32
35551;BME280;21655;46.056;13.616;2023-04-26T08:00:58;100247.13;;;20.53;56.73
35551;BME280;21655;46.056;13.616;2023-04-26T08:03:24;100248.81;;;21.44;54.76
35551;BME280;21655;46.056;13.616;2023-04-26T08:05:51;100241.75;;;21.58;52.15
35551;BME280;21655;46.056;13.616;2023-04-26T08:08:18;100244.06;;;21.61;49.92
35551;BME280;21655;46.056;13.616;2023-04-26T08:10:43;100241.84;;;23.53;46.99
35551;BME280;21655;46.056;13.616;2023-04-26T08:13:08;100236.63;;;23.40;46.89
35551;BME280;21655;46.056;13.616;2023-04-26T08:15:34;100236.16;;;23.79;44.12
35551;BME280;21655;46.056;13.616;2023-04-26T08:17:59;100236.53;;;24.14;42.67
35551;BME280;21655;46.056;13.616;2023-04-26T08:20:25;100230.91;;;24.61;42.94
35551;BME280;21655;46.056;13.616;2023-04-26T08:22:58;100233.13;;;25.05;41.96
35551;BME280;21655;46.056;13.616;2023-04-26T08:25:23;100220.53;;;25.42;40.26
35551;BME280;21655;46.056;13.616;2023-04-26T08:27:49;100230.94;;;24.66;40.13
35551;BME280;21655;46.056;13.616;2023-04-26T08:30:15;100231.41;;;26.50;36.18
35551;BME280;21655;46.056;13.616;2023-04-26T08:32:41;100228.28;;;26.22;36.69
35551;BME280;21655;46.056;13.616;2023-04-26T08:35:07;100234.16;;;25.40;37.85
35551;BME280;21655;46.056;13.616;2023-04-26T08:37:33;100238.81;;;26.21;36.72
35551;BME280;21655;46.056;13.616;2023-04-26T08:40:00;100237.34;;;26.44;35.36
35551;BME280;21655;46.056;13.616;2023-04-26T08:42:26;100234.47;;;25.49;35.78
35551;BME280;21655;46.056;13.616;2023-04-26T08:44:53;100235.03;;;25.51;35.51
35551;BME280;21655;46.056;13.616;2023-04-26T08:47:28;100229.47;;;24.58;36.03
35551;BME280;21655;46.056;13.616;2023-04-26T08:49:57;100238.63;;;24.65;37.47
35551;BME280;21655;46.056;13.616;2023-04-26T08:52:29;100229.53;;;23.95;36.63
35551;BME280;21655;46.056;13.616;2023-04-26T08:54:56;100235.22;;;24.32;36.47
35551;BME280;21655;46.056;13.616;2023-04-26T08:57:23;100234.88;;;22.91;38.63
35551;BME280;21655;46.056;13.616;2023-04-26T08:59:49;100232.94;;;22.54;39.12
35551;BME280;21655;46.056;13.616;2023-04-26T09:02:19;100227.63;;;23.00;40.61
35551;BME280;21655;46.056;13.616;2023-04-26T09:04:46;100229.47;;;23.32;39.72
35551;BME280;21655;46.056;13.616;2023-04-26T09:07:26;100234.13;;;23.22;39.34
35551;BME280;21655;46.056;13.616;2023-04-26T09:09:53;100232.91;;;23.13;36.97
35551;BME280;21655;46.056;13.616;2023-04-26T09:12:21;100234.06;;;23.38;34.86
35551;BME280;21655;46.056;13.616;2023-04-26T09:14:47;100230.25;;;23.28;36.65
35551;BME280;21655;46.056;13.616;2023-04-26T09:17:26;100230.22;;;22.26;37.99
35551;BME280;21655;46.056;13.616;2023-04-26T09:19:52;100232.09;;;22.96;36.72
35551;BME280;21655;46.056;13.616;2023-04-26T09:22:36;100239.91;;;22.89;33.88
35551;BME280;21655;46.056;13.616;2023-04-26T09:25:03;100243.91;;;22.50;31.94
35551;BME280;21655;46.056;13.616;2023-04-26T09:27:34;100240.09;;;23.47;33.14
35551;BME280;21655;46.056;13.616;2023-04-26T09:32:54;100240.06;;;21.90;33.78
35551;BME280;21655;46.056;13.616;2023-04-26T09:38:10;100226.88;;;23.09;34.40
35551;BME280;21655;46.056;13.616;2023-04-26T09:40:48;100221.56;;;23.34;33.86
35551;BME280;21655;46.056;13.616;2023-04-26T09:43:21;100212.16;;;23.07;34.00
35551;BME280;21655;46.056;13.616;2023-04-26T09:45:54;100211.78;;;23.20;33.50
35551;BME280;21655;46.056;13.616;2023-04-26T09:48:25;100219.28;;;23.10;34.78
35551;BME280;21655;46.056;13.616;2023-04-26T09:51:11;100215.50;;;22.62;35.77
35551;BME280;21655;46.056;13.616;2023-04-26T09:53:37;100219.81;;;22.86;32.51
35551;BME280;21655;46.056;13.616;2023-04-26T09:56:08;100211.31;;;22.86;33.33
35551;BME280;21655;46.056;13.616;2023-04-26T09:58:39;100215.09;;;22.53;33.73
35551;BME280;21655;46.056;13.616;2023-04-26T10:01:06;100221.81;;;22.47;34.51
35551;BME280;21655;46.056;13.616;2023-04-26T10:03:36;100216.38;;;22.08;35.27
35551;BME280;21655;46.056;13.616;2023-04-26T10:06:03;100200.91;;;21.77;36.24
35551;BME280;21655;46.056;13.616;2023-04-26T10:08:30;100202.88;;;22.69;35.65
35551;BME280;21655;46.056;13.616;2023-04-26T10:10:56;100209.09;;;22.12;32.82
35551;BME280;21655;46.056;13.616;2023-04-26T10:13:22;100201.31;;;23.00;34.82
35551;BME280;21655;46.056;13.616;2023-04-26T10:15:49;100197.22;;;22.48;34.01
35551;BME280;21655;46.056;13.616;2023-04-26T10:18:15;100196.97;;;22.49;35.00
35551;BME280;21655;46.056;13.616;2023-04-26T10:20:44;100195.56;;;22.95;34.91
35551;BME280;21655;46.056;13.616;2023-04-26T10:23:18;100191.84;;;22.46;35.48
35551;BME280;21655;46.056;13.616;2023-04-26T10:25:50;100202.50;;;23.03;35.35
35551;BME280;21655;46.056;13.616;2023-04-26T10:28:16;100208.09;;;23.73;34.85
35551;BME280;21655;46.056;13.616;2023-04-26T10:30:55;100199.53;;;23.41;33.63
35551;BME280;21655;46.056;13.616;2023-04-26T10:33:21;100208.28;;;23.93;36.18
35551;BME280;21655;46.056;13.616;2023-04-26T10:38:35;100197.56;;;22.94;35.73
35551;BME280;21655;46.056;13.616;2023-04-26T10:41:27;100203.81;;;21.82;37.95
35551;BME280;21655;46.056;13.616;2023-04-26T10:43:53;100194.00;;;22.23;37.85
35551;BME280;21655;46.056;13.616;2023-04-26T10:46:37;100200.97;;;19.97;42.38
35551;BME280;21655;46.056;13.616;2023-04-26T10:49:16;100199.78;;;19.29;45.73
35551;BME280;21655;46.056;13.616;2023-04-26T10:52:13;100194.13;;;18.99;45.40
35551;BME280;21655;46.056;13.616;2023-04-26T10:54:55;100184.97;;;19.33;44.77
35551;BME280;21655;46.056;13.616;2023-04-26T10:57:23;100209.41;;;18.74;47.02
35551;BME280;21655;46.056;13.616;2023-04-26T11:00:15;100200.66;;;20.67;42.82
35551;BME280;21655;46.056;13.616;2023-04-26T11:08:17;100180.97;;;20.95;40.12
35551;BME280;21655;46.056;13.616;2023-04-26T11:10:52;100191.72;;;19.32;43.72
35551;BME280;21655;46.056;13.616;2023-04-26T11:13:17;100188.50;;;18.41;45.23
35551;BME280;21655;46.056;13.616;2023-04-26T11:15:46;100193.13;;;18.11;47.17
35551;BME280;21655;46.056;13.616;2023-04-26T11:18:18;100194.47;;;17.84;49.77
35551;BME280;21655;46.056;13.616;2023-04-26T11:20:44;100189.44;;;17.92;50.18
35551;BME280;21655;46.056;13.616;2023-04-26T11:23:10;100202.03;;;17.65;50.57
35551;BME280;21655;46.056;13.616;2023-04-26T11:25:38;100195.28;;;17.48;51.35
35551;BME280;21655;46.056;13.616;2023-04-26T11:28:04;100200.00;;;17.72;54.27
35551;BME280;21655;46.056;13.616;2023-04-26T11:30:32;100199.66;;;17.62;53.87
35551;BME280;21655;46.056;13.616;2023-04-26T11:32:58;100202.41;;;17.44;53.53
35551;BME280;21655;46.056;13.616;2023-04-26T11:35:24;100210.66;;;17.39;58.32
35551;BME280;21655;46.056;13.616;2023-04-26T11:37:51;100204.88;;;17.59;57.05
35551;BME280;21655;46.056;13.616;2023-04-26T11:40:17;100201.03;;;17.53;58.29
35551;BME280;21655;46.056;13.616;2023-04-26T11:42:46;100202.69;;;17.36;57.17
35551;BME280;21655;46.056;13.616;2023-04-26T11:45:14;100213.22;;;17.41;58.12
35551;BME280;21655;46.056;13.616;2023-04-26T11:47:40;100212.31;;;17.47;61.56
35551;BME280;21655;46.056;13.616;2023-04-26T11:50:07;100216.25;;;17.39;60.13
35551;BME280;21655;46.056;13.616;2023-04-26T11:52:34;100214.59;;;17.25;59.68
35551;BME280;21655;46.056;13.616;2023-04-26T11:55:01;100219.47;;;17.43;57.52
35551;BME280;21655;46.056;13.616;2023-04-26T11:57:29;100214.94;;;17.42;54.94
35551;BME280;21655;46.056;13.616;2023-04-26T12:00:12;100216.41;;;17.44;52.97
35551;BME280;21655;46.056;13.616;2023-04-26T12:02:49;100206.81;;;17.58;55.22
35551;BME280;21655;46.056;13.616;2023-04-26T12:05:26;100209.09;;;17.68;55.65
35551;BME280;21655;46.056;13.616;2023-04-26T12:07:54;100210.13;;;17.49;56.95
35551;BME280;21655;46.056;13.616;2023-04-26T12:12:57;100205.44;;;17.43;58.14
35551;BME280;21655;46.056;13.616;2023-04-26T12:15:27;100202.75;;;17.54;58.29
35551;BME280;21655;46.056;13.616;2023-04-26T12:18:05;100202.44;;;17.62;61.32
35551;BME280;21655;46.056;13.616;2023-04-26T12:20:32;100205.19;;;17.69;60.56
35551;BME280;21655;46.056;13.616;2023-04-26T12:22:59;100199.47;;;17.82;57.04
35551;BME280;21655;46.056;13.616;2023-04-26T12:25:25;100199.34;;;17.95;54.86
35551;BME280;21655;46.056;13.616;2023-04-26T12:27:51;100192.66;;;18.50;54.66
35551;BME280;21655;46.056;13.616;2023-04-26T12:30:16;100189.00;;;18.67;51.19
35551;BME280;21655;46.056;13.616;2023-04-26T12:32:42;100190.91;;;18.85;51.16
35551;BME280;21655;46.056;13.616;2023-04-26T12:35:07;100192.56;;;18.74;50.66
35551;BME280;21655;46.056;13.616;2023-04-26T12:37:33;100188.94;;;18.56;51.99
35551;BME280;21655;46.056;13.616;2023-04-26T12:39:58;100186.44;;;18.30;55.18
35551;BME280;21655;46.056;13.616;2023-04-26T12:42:24;100188.41;;;18.29;55.31
35551;BME280;21655;46.056;13.616;2023-04-26T12:44:49;100196.06;;;18.16;56.32
35551;BME280;21655;46.056;13.616;2023-04-26T12:47:15;100193.38;;;17.85;58.72
35551;BME280;21655;46.056;13.616;2023-04-26T12:49:40;100192.00;;;17.76;64.89
35551;BME280;21655;46.056;13.616;2023-04-26T12:52:05;100189.47;;;17.68;77.26
35551;BME280;21655;46.056;13.616;2023-04-26T12:54:31;100188.66;;;17.85;78.08